createdAt,value
2022-10-15T00:00:07.607Z,92.10
2022-10-15T00:01:07.520Z,92.10
2022-10-15T00:02:07.440Z,92.21
2022-10-15T00:03:07.428Z,92.30
2022-10-15T00:04:07.522Z,92.30
2022-10-15T00:05:07.418Z,92.51
2022-10-15T00:06:07.405Z,92.71
2022-10-15T00:07:07.391Z,92.82
2022-10-15T00:08:07.379Z,92.91
2022-10-15T00:09:07.383Z,92.91
2022-10-15T00:10:07.377Z,93.02
2022-10-15T00:11:07.353Z,93.52
2022-10-15T00:12:07.334Z,93.52
2022-10-15T00:13:07.356Z,93.73
2022-10-15T00:14:07.331Z,93.83
2022-10-15T00:15:07.307Z,93.93
2022-10-15T00:16:07.319Z,94.04
2022-10-15T00:17:07.292Z,94.04
2022-10-15T00:18:07.270Z,94.24
2022-10-15T00:19:07.280Z,94.24
2022-10-15T00:20:07.253Z,94.44
2022-10-15T00:21:07.252Z,94.64
2022-10-15T00:22:07.231Z,94.74
2022-10-15T00:23:07.214Z,94.74
2022-10-15T00:24:07.220Z,94.85
2022-10-15T00:25:07.196Z,95.05
2022-10-15T00:26:07.182Z,95.15
2022-10-15T00:27:07.187Z,95.15
2022-10-15T00:28:07.163Z,95.15
2022-10-15T00:29:07.295Z,95.25
2022-10-15T00:30:07.187Z,95.36
2022-10-15T00:31:07.136Z,95.36
2022-10-15T00:32:07.135Z,95.46
2022-10-15T00:33:08.035Z,95.56
2022-10-15T00:34:07.093Z,95.66
2022-10-15T00:35:07.152Z,95.66
2022-10-15T00:36:07.100Z,95.72
2022-10-15T00:37:07.096Z,95.97
2022-10-15T00:38:07.055Z,95.97
2022-10-15T00:39:07.071Z,95.97
2022-10-15T00:40:07.052Z,96.17
2022-10-15T00:41:07.019Z,96.17
2022-10-15T00:42:07.019Z,96.37
2022-10-15T00:43:07.011Z,96.58
2022-10-15T00:44:06.995Z,96.68
2022-10-15T00:45:06.992Z,96.78
2022-10-15T00:46:06.959Z,96.88
2022-10-15T00:47:06.966Z,96.88
2022-10-15T00:48:06.955Z,96.98
2022-10-15T00:49:06.943Z,96.98
2022-10-15T00:50:06.933Z,97.08
2022-10-15T00:51:06.923Z,97.19
2022-10-15T00:52:06.905Z,97.19
2022-10-15T00:53:06.906Z,97.29
2022-10-15T00:54:06.905Z,97.29
2022-10-15T00:55:06.877Z,97.29
2022-10-15T00:56:06.856Z,97.39
2022-10-15T00:57:06.869Z,97.49
2022-10-15T00:58:06.909Z,97.49
2022-10-15T00:59:06.826Z,97.49
2022-10-15T01:00:06.833Z,97.60
2022-10-15T01:01:06.938Z,97.69
2022-10-15T01:02:06.852Z,97.69
2022-10-15T01:03:06.779Z,97.69
2022-10-15T01:04:06.775Z,97.80
2022-10-15T01:05:06.776Z,97.80
2022-10-15T01:06:06.758Z,97.89
2022-10-15T01:07:07.817Z,98.00
2022-10-15T01:08:06.729Z,98.00
2022-10-15T01:09:06.729Z,98.00
2022-10-15T01:10:06.700Z,98.10
2022-10-15T01:11:06.708Z,98.30
2022-10-15T01:12:06.699Z,98.41
2022-10-15T01:13:06.715Z,98.41
2022-10-15T01:14:06.702Z,98.41
2022-10-15T01:15:06.656Z,98.41
2022-10-15T01:16:06.697Z,98.41
2022-10-15T01:17:06.626Z,98.50
2022-10-15T01:18:06.617Z,98.50
2022-10-15T01:19:06.640Z,98.61
2022-10-15T01:20:06.613Z,98.61
2022-10-15T01:21:06.685Z,98.71
2022-10-15T01:22:06.597Z,98.71
2022-10-15T01:23:06.585Z,98.81
2022-10-15T01:24:06.560Z,98.81
2022-10-15T01:25:06.647Z,98.81
2022-10-15T01:26:06.524Z,98.81
2022-10-15T01:27:06.637Z,98.91
2022-10-15T01:28:06.513Z,98.91
2022-10-15T01:29:06.516Z,99.02
2022-10-15T01:30:06.514Z,99.02
2022-10-15T01:31:06.486Z,99.02
2022-10-15T01:32:06.467Z,99.11
2022-10-15T01:33:06.471Z,99.11
2022-10-15T01:34:06.484Z,99.22
2022-10-15T01:35:06.474Z,99.22
2022-10-15T01:36:06.643Z,99.32
2022-10-15T01:37:06.413Z,99.32
2022-10-15T01:38:06.423Z,99.32
2022-10-15T01:39:06.429Z,99.42
2022-10-15T01:40:06.378Z,99.42
2022-10-15T01:41:06.369Z,99.42
2022-10-15T01:42:06.358Z,99.52
2022-10-15T01:43:06.354Z,99.52
2022-10-15T01:44:06.327Z,99.52
2022-10-15T01:45:06.353Z,99.63
2022-10-15T01:46:06.348Z,99.63
2022-10-15T01:47:06.313Z,99.63
2022-10-15T01:48:06.295Z,99.73
2022-10-15T01:49:06.286Z,99.73
2022-10-15T01:50:06.266Z,99.73
2022-10-15T01:51:06.251Z,99.83
2022-10-15T01:52:06.262Z,99.83
2022-10-15T01:53:06.251Z,99.83
2022-10-15T01:54:06.225Z,99.93
2022-10-15T01:55:06.232Z,99.93
2022-10-15T01:56:06.211Z,99.93
2022-10-15T01:57:06.187Z,99.99
2022-10-15T01:58:06.209Z,99.99
2022-10-15T01:59:06.191Z,99.99
2022-10-15T02:00:06.163Z,99.99
2022-10-15T02:01:06.206Z,99.99
2022-10-15T02:02:06.876Z,99.99
2022-10-15T02:03:06.156Z,99.99
2022-10-15T02:04:06.115Z,99.99
2022-10-15T02:05:06.161Z,99.99
2022-10-15T02:06:06.123Z,99.99
2022-10-15T02:07:06.120Z,99.99
2022-10-15T02:08:06.072Z,99.99
2022-10-15T02:09:06.224Z,99.99
2022-10-15T02:10:06.259Z,99.99
2022-10-15T02:11:06.047Z,99.99
2022-10-15T02:12:06.047Z,99.99
2022-10-15T02:13:06.019Z,99.99
2022-10-15T02:14:06.014Z,99.99
2022-10-15T02:15:06.001Z,99.99
2022-10-15T02:16:06.198Z,99.99
2022-10-15T02:17:05.985Z,99.99
2022-10-15T02:18:05.963Z,99.99
2022-10-15T02:19:05.956Z,99.99
2022-10-15T02:20:05.958Z,99.99
2022-10-15T02:21:05.940Z,99.99
2022-10-15T02:22:05.932Z,99.99
2022-10-15T02:23:05.915Z,99.99
2022-10-15T02:24:05.899Z,99.99
2022-10-15T02:25:05.903Z,99.99
2022-10-15T02:26:05.925Z,99.99
2022-10-15T02:27:05.874Z,99.99
2022-10-15T02:28:05.851Z,99.99
2022-10-15T02:29:06.018Z,99.99
2022-10-15T02:30:05.838Z,99.99
2022-10-15T02:31:05.972Z,99.99
2022-10-15T02:32:05.826Z,99.99
2022-10-15T02:33:05.812Z,99.99
2022-10-15T02:34:05.815Z,99.99
2022-10-15T02:35:05.789Z,99.99
2022-10-15T02:36:05.774Z,99.99
2022-10-15T02:37:05.817Z,99.99
2022-10-15T02:38:05.844Z,99.99
2022-10-15T02:39:05.747Z,99.99
2022-10-15T02:40:05.747Z,99.99
2022-10-15T02:41:05.742Z,99.99
2022-10-15T02:42:05.705Z,99.99
2022-10-15T02:43:05.701Z,99.99
2022-10-15T02:44:05.713Z,99.99
2022-10-15T02:45:05.677Z,99.99
2022-10-15T02:46:05.666Z,99.99
2022-10-15T02:47:05.697Z,99.99
2022-10-15T02:48:05.638Z,99.99
2022-10-15T02:49:05.640Z,99.99
2022-10-15T02:50:05.617Z,99.99
2022-10-15T02:51:05.615Z,99.99
2022-10-15T02:52:05.609Z,99.99
2022-10-15T02:53:05.589Z,99.99
2022-10-15T02:54:05.578Z,99.99
2022-10-15T02:55:05.574Z,99.99
2022-10-15T02:56:05.551Z,99.99
2022-10-15T02:57:05.661Z,99.99
2022-10-15T02:58:05.539Z,99.99
2022-10-15T02:59:05.540Z,99.99
2022-10-15T03:00:05.515Z,99.99
2022-10-15T03:01:05.678Z,99.99
2022-10-15T03:02:05.486Z,99.99
2022-10-15T03:03:05.692Z,99.99
2022-10-15T03:04:05.471Z,99.99
2022-10-15T03:05:05.467Z,99.99
2022-10-15T03:06:05.444Z,99.99
2022-10-15T03:07:05.433Z,99.99
2022-10-15T03:08:05.432Z,99.99
2022-10-15T03:09:05.438Z,99.99
2022-10-15T03:10:05.403Z,99.99
2022-10-15T03:11:05.394Z,99.99
2022-10-15T03:12:05.399Z,99.99
2022-10-15T03:13:05.392Z,99.99
2022-10-15T03:14:05.356Z,99.99
2022-10-15T03:15:05.351Z,99.99
2022-10-15T03:16:05.333Z,99.99
2022-10-15T03:17:05.321Z,99.99
2022-10-15T03:18:05.320Z,99.99
2022-10-15T03:19:05.298Z,99.99
2022-10-15T03:20:05.549Z,99.99
2022-10-15T03:21:05.287Z,99.99
2022-10-15T03:22:05.270Z,99.99
2022-10-15T03:23:05.275Z,99.99
2022-10-15T03:24:05.251Z,99.99
2022-10-15T03:25:05.239Z,99.99
2022-10-15T03:26:05.244Z,99.99
2022-10-15T03:27:05.300Z,99.99
2022-10-15T03:28:05.233Z,99.99
2022-10-15T03:29:05.190Z,99.99
2022-10-15T03:30:05.177Z,99.99
2022-10-15T03:31:05.251Z,99.99
2022-10-15T03:32:05.165Z,99.99
2022-10-15T03:33:05.239Z,99.99
2022-10-15T03:34:05.137Z,99.99
2022-10-15T03:35:05.135Z,99.99
2022-10-15T03:36:05.119Z,99.99
2022-10-15T03:37:05.109Z,99.99
2022-10-15T03:38:05.105Z,99.99
2022-10-15T03:39:05.090Z,99.99
2022-10-15T03:40:05.156Z,99.99
2022-10-15T03:41:05.070Z,99.99
2022-10-15T03:42:05.140Z,99.99
2022-10-15T03:43:05.056Z,99.99
2022-10-15T03:44:05.055Z,99.99
2022-10-15T03:45:05.023Z,99.99
2022-10-15T03:46:05.203Z,99.99
2022-10-15T03:47:05.014Z,99.99
2022-10-15T03:48:05.019Z,99.99
2022-10-15T03:49:04.995Z,99.99
2022-10-15T03:50:04.968Z,99.99
2022-10-15T03:51:04.957Z,99.99
2022-10-15T03:52:04.935Z,99.99
2022-10-15T03:53:04.940Z,99.99
2022-10-15T03:54:04.929Z,99.99
2022-10-15T03:55:04.907Z,99.99
2022-10-15T03:56:04.895Z,99.99
2022-10-15T03:57:04.918Z,99.99
2022-10-15T03:58:04.887Z,99.99
2022-10-15T03:59:04.899Z,99.99
2022-10-15T04:00:04.859Z,99.99
2022-10-15T04:01:04.871Z,99.99
2022-10-15T04:02:04.972Z,99.99
2022-10-15T04:03:04.822Z,99.99
2022-10-15T04:04:04.813Z,99.99
2022-10-15T04:05:04.810Z,99.99
2022-10-15T04:06:04.787Z,99.99
2022-10-15T04:07:04.780Z,99.99
2022-10-15T04:08:04.758Z,99.99
2022-10-15T04:09:04.760Z,99.99
2022-10-15T04:10:04.764Z,99.99
2022-10-15T04:11:04.901Z,99.99
2022-10-15T04:12:04.734Z,99.99
2022-10-15T04:13:05.012Z,99.99
2022-10-15T04:14:04.702Z,99.99
2022-10-15T04:15:04.700Z,99.99
2022-10-15T04:16:04.673Z,99.99
2022-10-15T04:17:04.674Z,99.99
2022-10-15T04:18:04.659Z,99.99
2022-10-15T04:19:07.347Z,99.99
2022-10-15T04:20:04.660Z,99.99
2022-10-15T04:21:04.635Z,99.99
2022-10-15T04:22:04.833Z,99.99
2022-10-15T04:23:04.609Z,99.99
2022-10-15T04:24:04.594Z,99.99
2022-10-15T04:25:04.594Z,99.99
2022-10-15T04:26:04.570Z,99.99
2022-10-15T04:27:04.653Z,99.99
2022-10-15T04:28:04.551Z,99.99
2022-10-15T04:29:04.650Z,99.99
2022-10-15T04:30:04.516Z,99.99
2022-10-15T04:31:04.525Z,99.99
2022-10-15T04:32:04.507Z,99.99
2022-10-15T04:33:04.497Z,99.99
2022-10-15T04:34:04.663Z,99.99
2022-10-15T04:35:04.467Z,99.99
2022-10-15T04:36:04.564Z,99.99
2022-10-15T04:37:04.447Z,99.99
2022-10-15T04:38:04.440Z,99.99
2022-10-15T04:39:04.436Z,99.99
2022-10-15T04:40:04.407Z,99.99
2022-10-15T04:41:04.443Z,99.99
2022-10-15T04:42:04.389Z,99.99
2022-10-15T04:43:04.385Z,99.99
2022-10-15T04:44:04.364Z,99.99
2022-10-15T04:45:04.349Z,99.99
2022-10-15T04:46:04.375Z,99.99
2022-10-15T04:47:04.336Z,99.99
2022-10-15T04:48:04.316Z,99.99
2022-10-15T04:49:04.316Z,99.99
2022-10-15T04:50:04.301Z,99.99
2022-10-15T04:51:04.285Z,99.99
2022-10-15T04:52:04.281Z,99.99
2022-10-15T04:53:04.267Z,99.99
2022-10-15T04:54:04.258Z,99.99
2022-10-15T04:55:04.252Z,99.99
2022-10-15T04:56:04.260Z,99.99
2022-10-15T04:57:04.237Z,99.99
2022-10-15T04:58:04.217Z,99.99
2022-10-15T04:59:04.218Z,99.99
2022-10-15T05:00:04.193Z,99.99
2022-10-15T05:01:04.183Z,99.99
2022-10-15T05:02:04.469Z,99.99
2022-10-15T05:03:04.162Z,99.99
2022-10-15T05:04:04.150Z,99.99
2022-10-15T05:05:04.152Z,99.99
2022-10-15T05:06:04.122Z,99.99
2022-10-15T05:07:04.108Z,99.99
2022-10-15T05:08:04.102Z,99.99
2022-10-15T05:09:04.100Z,99.99
2022-10-15T05:10:04.076Z,99.99
2022-10-15T05:11:04.081Z,99.99
2022-10-15T05:12:04.058Z,99.99
2022-10-15T05:13:04.059Z,99.99
2022-10-15T05:14:04.028Z,99.99
2022-10-15T05:15:04.021Z,99.99
2022-10-15T05:16:04.012Z,99.99
2022-10-15T05:17:03.995Z,99.99
2022-10-15T05:18:03.995Z,99.99
2022-10-15T05:19:03.969Z,99.99
2022-10-15T05:20:03.969Z,99.99
2022-10-15T05:21:03.956Z,99.99
2022-10-15T05:22:03.959Z,99.99
2022-10-15T05:23:03.941Z,99.99
2022-10-15T05:24:03.924Z,99.99
2022-10-15T05:25:03.970Z,99.99
2022-10-15T05:26:03.900Z,99.99
2022-10-15T05:27:03.886Z,99.99
2022-10-15T05:28:03.925Z,99.99
2022-10-15T05:29:03.923Z,99.99
2022-10-15T05:30:04.820Z,99.99
2022-10-15T05:31:03.845Z,99.99
2022-10-15T05:32:03.954Z,99.99
2022-10-15T05:33:03.841Z,99.99
2022-10-15T05:34:03.807Z,99.99
2022-10-15T05:35:03.867Z,99.99
2022-10-15T05:36:03.813Z,99.99
2022-10-15T05:37:03.862Z,99.99
2022-10-15T05:38:03.790Z,99.99
2022-10-15T05:39:03.755Z,99.99
2022-10-15T05:40:03.822Z,99.99
2022-10-15T05:41:03.725Z,99.99
2022-10-15T05:42:03.731Z,99.99
2022-10-15T05:43:03.712Z,99.99
2022-10-15T05:44:03.709Z,99.99
2022-10-15T05:45:03.684Z,99.99
2022-10-15T05:46:03.682Z,99.99
2022-10-15T05:47:03.663Z,99.99
2022-10-15T05:48:03.659Z,99.99
2022-10-15T05:49:03.650Z,99.99
2022-10-15T05:50:07.000Z,99.99
2022-10-15T05:51:03.621Z,99.99
2022-10-15T05:52:03.615Z,99.99
2022-10-15T05:53:03.709Z,99.99
2022-10-15T05:54:03.597Z,99.99
2022-10-15T05:55:03.569Z,99.99
2022-10-15T05:56:03.569Z,99.99
2022-10-15T05:57:03.561Z,99.99
2022-10-15T05:58:04.553Z,99.99
2022-10-15T05:59:03.544Z,99.99
2022-10-15T06:00:03.541Z,99.99
2022-10-15T06:01:03.506Z,99.99
2022-10-15T06:02:03.537Z,99.99
2022-10-15T06:03:03.500Z,99.99
2022-10-15T06:04:03.517Z,99.99
2022-10-15T06:05:03.460Z,99.99
2022-10-15T06:06:03.452Z,99.99
2022-10-15T06:07:03.437Z,99.99
2022-10-15T06:08:03.442Z,99.99
2022-10-15T06:09:03.460Z,99.99
2022-10-15T06:10:03.412Z,99.99
2022-10-15T06:11:06.749Z,99.99
2022-10-15T06:12:03.397Z,99.99
2022-10-15T06:13:03.378Z,99.99
2022-10-15T06:14:03.988Z,99.99
2022-10-15T06:15:03.377Z,99.99
2022-10-15T06:16:03.355Z,99.99
2022-10-15T06:17:03.538Z,99.99
2022-10-15T06:18:03.323Z,99.99
2022-10-15T06:19:03.533Z,99.99
2022-10-15T06:20:03.313Z,99.99
2022-10-15T06:21:03.302Z,99.99
2022-10-15T06:22:03.286Z,99.99
2022-10-15T06:23:03.272Z,99.99
2022-10-15T06:24:06.293Z,99.99
2022-10-15T06:25:03.263Z,99.99
2022-10-15T06:26:03.243Z,99.99
2022-10-15T06:27:03.448Z,99.99
2022-10-15T06:28:03.227Z,99.99
2022-10-15T06:29:03.264Z,99.99
2022-10-15T06:30:03.215Z,99.99
2022-10-15T06:31:03.177Z,99.99
2022-10-15T06:32:03.364Z,99.99
2022-10-15T06:33:03.195Z,99.99
2022-10-15T06:34:03.162Z,99.99
2022-10-15T06:35:03.145Z,99.99
2022-10-15T06:36:03.132Z,99.99
2022-10-15T06:37:03.118Z,99.99
2022-10-15T06:38:03.401Z,99.99
2022-10-15T06:39:03.096Z,99.99
2022-10-15T06:40:03.114Z,99.99
2022-10-15T06:41:03.068Z,99.99
2022-10-15T06:42:03.083Z,99.99
2022-10-15T06:43:03.088Z,99.99
2022-10-15T06:44:03.048Z,99.99
2022-10-15T06:45:03.084Z,99.99
2022-10-15T06:46:03.032Z,99.99
2022-10-15T06:47:03.009Z,99.99
2022-10-15T06:48:03.001Z,99.99
2022-10-15T06:49:02.983Z,99.99
2022-10-15T06:50:02.996Z,99.99
2022-10-15T06:51:02.977Z,99.99
2022-10-15T06:52:03.785Z,99.99
2022-10-15T06:53:02.950Z,99.99
2022-10-15T06:54:02.964Z,99.99
2022-10-15T06:55:02.943Z,99.99
2022-10-15T06:56:02.913Z,99.99
2022-10-15T06:57:02.895Z,99.99
2022-10-15T06:58:02.897Z,99.99
2022-10-15T06:59:02.882Z,99.99
2022-10-15T07:00:02.879Z,99.99
2022-10-15T07:01:02.865Z,99.99
2022-10-15T07:02:02.846Z,99.99
2022-10-15T07:03:02.929Z,99.99
2022-10-15T07:04:02.823Z,99.99
2022-10-15T07:05:02.844Z,99.99
2022-10-15T07:06:02.811Z,99.99
2022-10-15T07:07:02.788Z,99.99
2022-10-15T07:08:02.779Z,99.99
2022-10-15T07:09:02.771Z,99.99
2022-10-15T07:10:02.950Z,99.99
2022-10-15T07:11:02.769Z,99.99
2022-10-15T07:12:02.748Z,99.99
2022-10-15T07:13:02.767Z,99.99
2022-10-15T07:14:02.728Z,99.99
2022-10-15T07:15:02.705Z,99.99
2022-10-15T07:16:02.710Z,99.99
2022-10-15T07:17:02.683Z,99.99
2022-10-15T07:18:02.751Z,99.99
2022-10-15T07:19:02.668Z,99.99
2022-10-15T07:20:02.685Z,99.99
2022-10-15T07:21:02.686Z,99.99
2022-10-15T07:22:02.630Z,99.99
2022-10-15T07:23:02.703Z,99.99
2022-10-15T07:24:02.635Z,99.99
2022-10-15T07:25:02.595Z,99.99
2022-10-15T07:26:02.603Z,99.99
2022-10-15T07:27:08.357Z,99.99
2022-10-15T07:28:02.574Z,99.99
2022-10-15T07:29:02.622Z,99.99
2022-10-15T07:30:02.556Z,99.99
2022-10-15T07:31:02.592Z,99.99
2022-10-15T07:32:02.531Z,99.99
2022-10-15T07:33:02.538Z,99.99
2022-10-15T07:34:02.513Z,99.99
2022-10-15T07:35:02.520Z,99.99
2022-10-15T07:36:02.566Z,99.99
2022-10-15T07:37:02.472Z,99.99
2022-10-15T07:38:02.455Z,99.99
2022-10-15T07:39:02.446Z,99.99
2022-10-15T07:40:02.450Z,99.99
2022-10-15T07:41:02.515Z,99.99
2022-10-15T07:42:02.462Z,99.99
2022-10-15T07:43:02.408Z,99.99
2022-10-15T07:44:02.530Z,99.99
2022-10-15T07:45:02.381Z,99.99
2022-10-15T07:46:02.618Z,99.99
2022-10-15T07:47:02.385Z,99.99
2022-10-15T07:48:02.363Z,99.95
2022-10-15T07:49:02.513Z,99.95
2022-10-15T07:50:02.334Z,99.85
2022-10-15T07:51:02.416Z,99.64
2022-10-15T07:52:02.309Z,99.49
2022-10-15T07:53:02.303Z,99.39
2022-10-15T07:54:02.279Z,99.29
2022-10-15T07:55:02.269Z,99.29
2022-10-15T07:56:02.272Z,99.19
2022-10-15T07:57:02.259Z,98.99
2022-10-15T07:58:02.236Z,98.88
2022-10-15T07:59:02.212Z,98.63
2022-10-15T08:00:02.239Z,98.54
2022-10-15T08:01:02.205Z,98.43
2022-10-15T08:02:02.203Z,98.23
2022-10-15T08:03:02.185Z,98.13
2022-10-15T08:04:02.169Z,98.03
2022-10-15T08:05:02.162Z,97.72
2022-10-15T08:06:02.151Z,97.47
2022-10-15T08:07:02.188Z,97.38
2022-10-15T08:08:02.125Z,97.17
2022-10-15T08:09:02.107Z,97.07
2022-10-15T08:10:02.113Z,96.97
2022-10-15T08:11:02.091Z,96.87
2022-10-15T08:12:02.092Z,96.62
2022-10-15T08:13:02.060Z,96.51
2022-10-15T08:14:02.055Z,96.42
2022-10-15T08:15:02.046Z,96.22
2022-10-15T08:16:02.037Z,96.11
2022-10-15T08:17:02.585Z,96.11
2022-10-15T08:18:02.052Z,96.07
2022-10-15T08:19:02.015Z,95.97
2022-10-15T08:20:02.001Z,95.56
2022-10-15T08:21:01.980Z,95.36
2022-10-15T08:22:02.017Z,95.26
2022-10-15T08:23:01.969Z,95.26
2022-10-15T08:24:01.954Z,95.06
2022-10-15T08:25:01.958Z,95.06
2022-10-15T08:26:01.941Z,94.95
2022-10-15T08:27:01.928Z,94.55
2022-10-15T08:28:01.942Z,94.45
2022-10-15T08:29:01.940Z,94.40
2022-10-15T08:30:02.041Z,94.40
2022-10-15T08:31:05.204Z,94.30
2022-10-15T08:32:01.877Z,94.00
2022-10-15T08:33:01.850Z,93.90
2022-10-15T08:34:01.835Z,93.90
2022-10-15T08:35:01.826Z,94.00
2022-10-15T08:36:01.829Z,94.00
2022-10-15T08:37:01.860Z,93.90
2022-10-15T08:38:01.790Z,93.90
2022-10-15T08:39:02.599Z,93.90
2022-10-15T08:40:01.782Z,93.90
2022-10-15T08:41:01.757Z,93.90
2022-10-15T08:42:01.825Z,93.85
2022-10-15T08:43:01.740Z,93.85
2022-10-15T08:44:01.756Z,93.75
2022-10-15T08:45:01.734Z,93.75
2022-10-15T08:46:01.715Z,93.75
2022-10-15T08:47:01.735Z,93.55
2022-10-15T08:48:01.698Z,93.15
2022-10-15T08:49:01.663Z,92.94
2022-10-15T08:50:01.655Z,92.74
2022-10-15T08:51:01.655Z,92.64
2022-10-15T08:52:01.634Z,92.64
2022-10-15T08:53:01.633Z,92.54
2022-10-15T08:54:01.621Z,92.54
2022-10-15T08:55:01.604Z,92.54
2022-10-15T08:56:01.600Z,92.54
2022-10-15T08:57:01.580Z,92.44
2022-10-15T08:58:01.592Z,92.44
2022-10-15T08:59:01.552Z,92.24
2022-10-15T09:00:01.605Z,91.89
2022-10-15T09:01:01.537Z,91.78
2022-10-15T09:02:01.549Z,91.58
2022-10-15T09:03:01.713Z,91.49
2022-10-15T09:04:01.517Z,91.38
2022-10-15T09:05:01.490Z,91.08
2022-10-15T09:06:01.486Z,91.14
2022-10-15T09:07:01.474Z,90.73
2022-10-15T09:08:01.474Z,90.73
2022-10-15T09:09:01.459Z,90.43
2022-10-15T09:10:01.444Z,90.12
2022-10-15T09:11:01.423Z,90.03
2022-10-15T09:12:01.425Z,90.12
2022-10-15T09:13:01.409Z,90.03
2022-10-15T09:14:01.416Z,90.03
2022-10-15T09:15:01.394Z,89.92
2022-10-15T09:16:01.574Z,89.58
2022-10-15T09:17:01.366Z,89.68
2022-10-15T09:18:01.364Z,89.48
2022-10-15T09:19:01.423Z,89.48
2022-10-15T09:20:01.370Z,89.28
2022-10-15T09:21:01.315Z,89.17
2022-10-15T09:22:01.307Z,88.87
2022-10-15T09:23:01.298Z,88.77
2022-10-15T09:24:01.305Z,88.57
2022-10-15T09:25:01.272Z,88.57
2022-10-15T09:26:01.258Z,88.32
2022-10-15T09:27:01.260Z,88.23
2022-10-15T09:28:01.239Z,88.02
2022-10-15T09:29:01.324Z,88.02
2022-10-15T09:30:01.524Z,88.02
2022-10-15T09:31:01.214Z,87.72
2022-10-15T09:32:01.320Z,87.68
2022-10-15T09:33:01.183Z,87.78
2022-10-15T09:34:01.179Z,87.58
2022-10-15T09:35:01.181Z,87.27
2022-10-15T09:36:01.143Z,87.27
2022-10-15T09:37:01.142Z,86.73
2022-10-15T09:38:05.673Z,86.33
2022-10-15T09:39:01.114Z,86.13
2022-10-15T09:40:01.140Z,86.02
2022-10-15T09:41:01.180Z,85.92
2022-10-15T09:42:01.090Z,86.08
2022-10-15T09:43:01.297Z,86.08
2022-10-15T09:44:01.085Z,86.18
2022-10-15T09:45:01.051Z,86.08
2022-10-15T09:46:01.105Z,85.68
2022-10-15T09:47:01.031Z,85.78
2022-10-15T09:48:01.024Z,85.58
2022-10-15T09:49:01.010Z,85.08
2022-10-15T09:50:00.991Z,84.97
2022-10-15T09:51:01.001Z,85.17
2022-10-15T09:52:00.978Z,85.28
2022-10-15T09:53:00.968Z,85.17
2022-10-15T09:54:00.957Z,85.28
2022-10-15T09:55:00.949Z,85.28
2022-10-15T09:56:01.006Z,85.38
2022-10-15T09:57:00.934Z,85.08
2022-10-15T09:58:00.908Z,85.28
2022-10-15T09:59:01.970Z,85.24
2022-10-15T10:00:00.920Z,84.83
2022-10-15T10:01:00.895Z,84.74
2022-10-15T10:02:00.956Z,84.94
2022-10-15T10:03:00.867Z,84.94
2022-10-15T10:04:00.845Z,84.63
2022-10-15T10:05:01.606Z,84.94
2022-10-15T10:06:00.818Z,84.74
2022-10-15T10:07:00.823Z,84.63
2022-10-15T10:08:00.796Z,84.83
2022-10-15T10:09:00.802Z,84.97
2022-10-15T10:10:00.785Z,84.83
2022-10-15T10:11:00.771Z,84.74
2022-10-15T10:12:00.797Z,84.83
2022-10-15T10:13:00.755Z,84.83
2022-10-15T10:14:00.742Z,84.53
2022-10-15T10:15:00.729Z,84.43
2022-10-15T10:16:01.085Z,84.23
2022-10-15T10:17:00.702Z,84.23
2022-10-15T10:18:00.710Z,84.13
2022-10-15T10:19:00.684Z,84.23
2022-10-15T10:20:00.699Z,84.23
2022-10-15T10:21:00.800Z,84.03
2022-10-15T10:22:00.649Z,83.72
2022-10-15T10:23:00.656Z,83.72
2022-10-15T10:24:00.750Z,83.79
2022-10-15T10:25:00.619Z,83.79
2022-10-15T10:26:00.603Z,83.39
2022-10-15T10:27:00.627Z,82.98
2022-10-15T10:28:00.609Z,82.78
2022-10-15T10:29:09.840Z,82.68
2022-10-15T10:30:00.577Z,82.64
2022-10-15T10:31:00.554Z,82.54
2022-10-15T10:32:00.663Z,82.44
2022-10-15T10:33:00.537Z,82.34
2022-10-15T10:34:00.531Z,82.04
2022-10-15T10:35:00.500Z,81.84
2022-10-15T10:36:00.558Z,81.73
2022-10-15T10:37:00.492Z,81.73
2022-10-15T10:38:00.474Z,81.73
2022-10-15T10:39:00.486Z,81.84
2022-10-15T10:40:00.453Z,81.73
2022-10-15T10:41:00.508Z,81.73
2022-10-15T10:42:00.439Z,81.93
2022-10-15T10:43:00.417Z,81.84
2022-10-15T10:44:00.437Z,81.84
2022-10-15T10:45:00.424Z,81.93
2022-10-15T10:46:00.391Z,82.14
2022-10-15T10:47:00.373Z,82.04
2022-10-15T10:48:00.391Z,81.63
2022-10-15T10:49:00.380Z,80.93
2022-10-15T10:50:00.370Z,81.19
2022-10-15T10:51:00.384Z,81.19
2022-10-15T10:52:00.407Z,81.43
2022-10-15T10:53:00.305Z,81.33
2022-10-15T10:54:00.298Z,81.33
2022-10-15T10:55:00.317Z,81.53
2022-10-15T10:56:00.276Z,81.63
2022-10-15T10:57:00.262Z,81.73
2022-10-15T10:58:00.265Z,81.63
2022-10-15T10:59:00.236Z,81.73
2022-10-15T11:00:00.237Z,81.39
2022-10-15T11:01:00.294Z,81.39
2022-10-15T11:02:00.213Z,80.79
2022-10-15T11:03:00.217Z,80.89
2022-10-15T11:04:00.225Z,80.39
2022-10-15T11:05:00.170Z,79.72
2022-10-15T11:06:00.255Z,79.82
2022-10-15T11:07:00.147Z,80.22
2022-10-15T11:08:00.148Z,80.52
2022-10-15T11:09:00.143Z,80.93
2022-10-15T11:10:00.125Z,81.03
2022-10-15T11:11:00.128Z,81.23
2022-10-15T11:12:00.104Z,81.33
2022-10-15T11:13:00.108Z,81.03
2022-10-15T11:14:00.089Z,80.79
2022-10-15T11:15:00.070Z,80.69
2022-10-15T11:16:00.083Z,80.29
2022-10-15T11:17:00.038Z,80.19
2022-10-15T11:18:00.038Z,79.58
2022-10-15T11:19:03.560Z,79.79
2022-10-15T11:20:21.729Z,79.88
2022-10-15T11:21:03.082Z,80.08
2022-10-15T11:22:00.006Z,80.08
2022-10-15T11:22:59.973Z,80.08
2022-10-15T11:23:59.975Z,80.29
2022-10-15T11:25:06.698Z,80.19
2022-10-15T11:25:59.955Z,80.39
2022-10-15T11:27:10.415Z,80.45
2022-10-15T11:27:59.971Z,80.15
2022-10-15T11:29:00.015Z,80.15
2022-10-15T11:29:59.934Z,79.85
2022-10-15T11:30:59.895Z,79.71
2022-10-15T11:32:02.603Z,79.50
2022-10-15T11:33:08.825Z,79.50
2022-10-15T11:33:59.857Z,79.47
2022-10-15T11:34:59.849Z,79.27
2022-10-15T11:35:59.841Z,79.17
2022-10-15T11:36:59.817Z,78.97
2022-10-15T11:37:59.814Z,78.83
2022-10-15T11:38:59.846Z,78.29
2022-10-15T11:39:59.807Z,77.69
2022-10-15T11:40:59.780Z,77.15
2022-10-15T11:41:59.775Z,76.65
2022-10-15T11:42:59.754Z,76.65
2022-10-15T11:43:59.767Z,76.45
2022-10-15T11:44:59.733Z,76.85
2022-10-15T11:45:59.735Z,76.95
2022-10-15T11:46:59.846Z,76.75
2022-10-15T11:47:59.807Z,76.48
2022-10-15T11:48:59.693Z,76.28
2022-10-15T11:49:59.688Z,76.18
2022-10-15T11:50:59.663Z,76.28
2022-10-15T11:51:59.664Z,76.28
2022-10-15T11:52:59.815Z,76.38
2022-10-15T11:53:59.644Z,76.38
2022-10-15T11:54:59.650Z,76.38
2022-10-15T11:55:59.617Z,76.28
2022-10-15T11:56:59.606Z,76.48
2022-10-15T11:57:59.599Z,75.27
2022-10-15T11:59:59.586Z,75.01
2022-10-15T12:00:59.551Z,75.31
2022-10-15T12:01:59.550Z,75.31
2022-10-15T12:02:59.578Z,75.35
2022-10-15T12:03:59.568Z,75.85
2022-10-15T12:04:59.532Z,76.15
2022-10-15T12:05:59.505Z,76.45
2022-10-15T12:06:59.505Z,76.56
2022-10-15T12:07:59.517Z,76.65
2022-10-15T12:08:59.486Z,76.76
2022-10-15T12:09:59.471Z,76.65
2022-10-15T12:10:59.437Z,76.05
2022-10-15T12:12:02.088Z,76.25
2022-10-15T12:12:59.423Z,76.25
2022-10-15T12:13:59.417Z,76.45
2022-10-15T12:14:59.438Z,76.65
2022-10-15T12:15:59.404Z,76.56
2022-10-15T12:16:59.428Z,76.86
2022-10-15T12:17:59.369Z,77.06
2022-10-15T12:18:59.389Z,77.16
2022-10-15T12:19:59.341Z,77.16
2022-10-15T12:20:59.335Z,77.66
2022-10-15T12:21:59.339Z,77.76
2022-10-15T12:22:59.305Z,77.66
2022-10-15T12:23:59.308Z,77.56
2022-10-15T12:24:59.318Z,77.59
2022-10-15T12:25:59.285Z,77.59
2022-10-15T12:26:59.262Z,77.80
2022-10-15T12:27:59.258Z,78.00
2022-10-15T12:29:00.920Z,78.10
2022-10-15T12:29:59.245Z,78.40
2022-10-15T12:30:59.244Z,78.50
2022-10-15T12:31:59.227Z,78.50
2022-10-15T12:32:59.226Z,78.50
2022-10-15T12:33:59.232Z,78.50
2022-10-15T12:34:59.191Z,78.60
2022-10-15T12:35:59.186Z,78.60
2022-10-15T12:36:59.155Z,78.30
2022-10-15T12:37:59.237Z,78.10
2022-10-15T12:38:59.135Z,77.90
2022-10-15T12:39:59.241Z,78.10
2022-10-15T12:40:59.131Z,78.00
2022-10-15T12:41:59.120Z,77.86
2022-10-15T12:42:59.090Z,77.96
2022-10-15T12:43:59.079Z,77.96
2022-10-15T12:44:59.068Z,77.96
2022-10-15T12:45:59.189Z,77.76
2022-10-15T12:46:59.053Z,78.06
2022-10-15T12:47:59.042Z,78.16
2022-10-15T12:48:59.036Z,77.96
2022-10-15T12:49:59.013Z,78.16
2022-10-15T12:50:58.999Z,78.06
2022-10-15T12:51:59.012Z,78.06
2022-10-15T12:52:58.979Z,77.76